Terminal Aerodrome Forecast
Issued by NWS

Home | Current Version | Previous Version | Text Only | Print | Product List | Glossary On
Versions: 1 2 3 4 5 6 7 8 9 10 11 12 13 14 15
000
FTUS42 KMLB 191100
TAFLEE
TAF
KLEE 191138Z 1912/2012 06004KT P6SM SCT025 BKN200
     FM191500 06005KT P6SM SCT040 BKN120
     FM191800 06007KT 6SM -SHRA SCT030 BKN050 OVC100
     FM200000 04004KT P6SM VCSH BKN040 OVC060=

USA.gov is the U.S. government's official web portal to all federal, state and local government web resources and services.